sensor_id;sensor_type;location;lat;lon;timestamp;pressure;altitude;pressure_sealevel;temperature
68939;BMP180;59064;45.294;11.816;2023-05-07T00:01:13;101351.80;;;15.70
68939;BMP180;59064;45.294;11.816;2023-05-07T00:03:38;101352.80;;;15.70
68939;BMP180;59064;45.294;11.816;2023-05-07T00:06:04;101357.60;;;15.60
68939;BMP180;59064;45.294;11.816;2023-05-07T00:08:30;101360.80;;;15.50
68939;BMP180;59064;45.294;11.816;2023-05-07T00:10:55;101359.80;;;15.40
68939;BMP180;59064;45.294;11.816;2023-05-07T00:13:21;101355.80;;;15.30
68939;BMP180;59064;45.294;11.816;2023-05-07T00:15:46;101350.60;;;15.20
68939;BMP180;59064;45.294;11.816;2023-05-07T00:18:12;101355.40;;;15.10
68939;BMP180;59064;45.294;11.816;2023-05-07T00:20:39;101349.80;;;15.00
68939;BMP180;59064;45.294;11.816;2023-05-07T00:23:04;101347.20;;;14.90
68939;BMP180;59064;45.294;11.816;2023-05-07T00:25:30;101341.20;;;14.80
68939;BMP180;59064;45.294;11.816;2023-05-07T00:27:55;101335.20;;;14.72
68939;BMP180;59064;45.294;11.816;2023-05-07T00:30:21;101337.00;;;14.70
68939;BMP180;59064;45.294;11.816;2023-05-07T00:32:46;101338.20;;;14.70
68939;BMP180;59064;45.294;11.816;2023-05-07T00:35:14;101334.00;;;14.70
68939;BMP180;59064;45.294;11.816;2023-05-07T00:37:39;101335.40;;;14.70
68939;BMP180;59064;45.294;11.816;2023-05-07T00:40:06;101333.20;;;14.70
68939;BMP180;59064;45.294;11.816;2023-05-07T00:42:33;101337.20;;;14.70
68939;BMP180;59064;45.294;11.816;2023-05-07T00:44:58;101336.40;;;14.80
68939;BMP180;59064;45.294;11.816;2023-05-07T00:47:25;101340.80;;;14.80
68939;BMP180;59064;45.294;11.816;2023-05-07T00:49:51;101338.40;;;14.90
68939;BMP180;59064;45.294;11.816;2023-05-07T00:52:17;101339.00;;;15.00
68939;BMP180;59064;45.294;11.816;2023-05-07T00:54:45;101336.60;;;15.00
68939;BMP180;59064;45.294;11.816;2023-05-07T00:57:11;101345.40;;;15.02
68939;BMP180;59064;45.294;11.816;2023-05-07T00:59:37;101342.40;;;15.10
68939;BMP180;59064;45.294;11.816;2023-05-07T01:02:03;101344.80;;;15.10
68939;BMP180;59064;45.294;11.816;2023-05-07T01:04:29;101333.00;;;15.20
68939;BMP180;59064;45.294;11.816;2023-05-07T01:06:55;101332.00;;;15.20
68939;BMP180;59064;45.294;11.816;2023-05-07T01:09:23;101332.20;;;15.30
68939;BMP180;59064;45.294;11.816;2023-05-07T01:11:50;101334.60;;;15.30
68939;BMP180;59064;45.294;11.816;2023-05-07T01:14:17;101336.80;;;15.30
68939;BMP180;59064;45.294;11.816;2023-05-07T01:16:43;101334.00;;;15.30
68939;BMP180;59064;45.294;11.816;2023-05-07T01:19:09;101334.40;;;15.20
68939;BMP180;59064;45.294;11.816;2023-05-07T01:21:38;101332.60;;;15.20
68939;BMP180;59064;45.294;11.816;2023-05-07T01:24:04;101331.40;;;15.20
68939;BMP180;59064;45.294;11.816;2023-05-07T01:26:30;101326.60;;;15.20
68939;BMP180;59064;45.294;11.816;2023-05-07T01:28:56;101329.80;;;15.20
68939;BMP180;59064;45.294;11.816;2023-05-07T01:31:23;101328.00;;;15.20
68939;BMP180;59064;45.294;11.816;2023-05-07T01:33:50;101328.40;;;15.20
68939;BMP180;59064;45.294;11.816;2023-05-07T01:36:18;101328.40;;;15.20
68939;BMP180;59064;45.294;11.816;2023-05-07T01:38:45;101330.00;;;15.20
68939;BMP180;59064;45.294;11.816;2023-05-07T01:41:11;101331.60;;;15.20
68939;BMP180;59064;45.294;11.816;2023-05-07T01:43:40;101337.60;;;15.10
68939;BMP180;59064;45.294;11.816;2023-05-07T01:46:07;101336.60;;;15.10
68939;BMP180;59064;45.294;11.816;2023-05-07T01:48:35;101337.80;;;15.10
68939;BMP180;59064;45.294;11.816;2023-05-07T01:51:01;101335.40;;;15.10
68939;BMP180;59064;45.294;11.816;2023-05-07T01:53:28;101334.40;;;15.10
68939;BMP180;59064;45.294;11.816;2023-05-07T01:55:53;101331.00;;;15.10
68939;BMP180;59064;45.294;11.816;2023-05-07T01:58:19;101328.60;;;15.14
68939;BMP180;59064;45.294;11.816;2023-05-07T02:00:44;101325.20;;;15.18
68939;BMP180;59064;45.294;11.816;2023-05-07T02:03:10;101324.20;;;15.18
68939;BMP180;59064;45.294;11.816;2023-05-07T02:05:35;101320.20;;;15.20
68939;BMP180;59064;45.294;11.816;2023-05-07T02:08:01;101317.00;;;15.20
68939;BMP180;59064;45.294;11.816;2023-05-07T02:10:26;101316.60;;;15.20
68939;BMP180;59064;45.294;11.816;2023-05-07T02:12:53;101318.40;;;15.20
68939;BMP180;59064;45.294;11.816;2023-05-07T02:15:18;101317.20;;;15.20
68939;BMP180;59064;45.294;11.816;2023-05-07T02:18:04;101316.00;;;15.30
68939;BMP180;59064;45.294;11.816;2023-05-07T02:20:30;101317.00;;;15.30
68939;BMP180;59064;45.294;11.816;2023-05-07T02:22:55;101320.40;;;15.30
68939;BMP180;59064;45.294;11.816;2023-05-07T02:25:21;101318.20;;;15.30
68939;BMP180;59064;45.294;11.816;2023-05-07T02:27:46;101318.00;;;15.26
68939;BMP180;59064;45.294;11.816;2023-05-07T02:30:13;101324.80;;;15.20
68939;BMP180;59064;45.294;11.816;2023-05-07T02:32:39;101324.00;;;15.20
68939;BMP180;59064;45.294;11.816;2023-05-07T02:35:05;101318.80;;;15.10
68939;BMP180;59064;45.294;11.816;2023-05-07T02:37:30;101318.60;;;15.10
68939;BMP180;59064;45.294;11.816;2023-05-07T02:39:56;101315.80;;;15.00
68939;BMP180;59064;45.294;11.816;2023-05-07T02:42:22;101317.80;;;14.90
68939;BMP180;59064;45.294;11.816;2023-05-07T02:44:47;101313.20;;;14.80
68939;BMP180;59064;45.294;11.816;2023-05-07T02:47:14;101313.60;;;14.78
68939;BMP180;59064;45.294;11.816;2023-05-07T02:49:40;101315.40;;;14.70
68939;BMP180;59064;45.294;11.816;2023-05-07T02:52:06;101314.80;;;14.70
68939;BMP180;59064;45.294;11.816;2023-05-07T02:54:31;101318.60;;;14.70
68939;BMP180;59064;45.294;11.816;2023-05-07T02:56:57;101315.20;;;14.60
68939;BMP180;59064;45.294;11.816;2023-05-07T02:59:23;101316.80;;;14.50
68939;BMP180;59064;45.294;11.816;2023-05-07T03:01:49;101316.60;;;14.50
68939;BMP180;59064;45.294;11.816;2023-05-07T03:04:15;101312.00;;;14.50
68939;BMP180;59064;45.294;11.816;2023-05-07T03:06:41;101310.20;;;14.50
68939;BMP180;59064;45.294;11.816;2023-05-07T03:09:06;101305.60;;;14.50
68939;BMP180;59064;45.294;11.816;2023-05-07T03:11:32;101304.60;;;14.60
68939;BMP180;59064;45.294;11.816;2023-05-07T03:13:58;101302.60;;;14.60
68939;BMP180;59064;45.294;11.816;2023-05-07T03:16:23;101301.60;;;14.70
68939;BMP180;59064;45.294;11.816;2023-05-07T03:18:49;101299.40;;;14.70
68939;BMP180;59064;45.294;11.816;2023-05-07T03:21:14;101303.00;;;14.72
68939;BMP180;59064;45.294;11.816;2023-05-07T03:23:40;101302.00;;;14.78
68939;BMP180;59064;45.294;11.816;2023-05-07T03:26:05;101304.40;;;14.78
68939;BMP180;59064;45.294;11.816;2023-05-07T03:28:30;101302.20;;;14.76
68939;BMP180;59064;45.294;11.816;2023-05-07T03:30:56;101306.80;;;14.80
68939;BMP180;59064;45.294;11.816;2023-05-07T03:33:21;101307.40;;;14.80
68939;BMP180;59064;45.294;11.816;2023-05-07T03:35:47;101312.00;;;14.88
68939;BMP180;59064;45.294;11.816;2023-05-07T03:38:12;101309.60;;;14.90
68939;BMP180;59064;45.294;11.816;2023-05-07T03:40:38;101310.00;;;14.90
68939;BMP180;59064;45.294;11.816;2023-05-07T03:43:03;101309.40;;;14.92
68939;BMP180;59064;45.294;11.816;2023-05-07T03:45:29;101312.40;;;14.92
68939;BMP180;59064;45.294;11.816;2023-05-07T03:47:55;101315.60;;;14.90
68939;BMP180;59064;45.294;11.816;2023-05-07T03:50:20;101321.80;;;14.90
68939;BMP180;59064;45.294;11.816;2023-05-07T03:52:47;101318.00;;;14.90
68939;BMP180;59064;45.294;11.816;2023-05-07T03:55:12;101314.20;;;14.90
68939;BMP180;59064;45.294;11.816;2023-05-07T03:57:38;101313.00;;;14.90
68939;BMP180;59064;45.294;11.816;2023-05-07T04:00:03;101314.20;;;14.90
68939;BMP180;59064;45.294;11.816;2023-05-07T04:02:30;101321.80;;;14.82
68939;BMP180;59064;45.294;11.816;2023-05-07T04:04:55;101325.60;;;14.80
68939;BMP180;59064;45.294;11.816;2023-05-07T04:07:22;101324.00;;;14.80
68939;BMP180;59064;45.294;11.816;2023-05-07T04:09:47;101326.40;;;14.74
68939;BMP180;59064;45.294;11.816;2023-05-07T04:12:13;101327.00;;;14.70
68939;BMP180;59064;45.294;11.816;2023-05-07T04:14:39;101325.80;;;14.70
68939;BMP180;59064;45.294;11.816;2023-05-07T04:17:04;101326.00;;;14.60
68939;BMP180;59064;45.294;11.816;2023-05-07T04:19:33;101327.60;;;14.64
68939;BMP180;59064;45.294;11.816;2023-05-07T04:21:58;101331.40;;;14.70
68939;BMP180;59064;45.294;11.816;2023-05-07T04:24:24;101334.60;;;14.70
68939;BMP180;59064;45.294;11.816;2023-05-07T04:26:50;101332.40;;;14.80
68939;BMP180;59064;45.294;11.816;2023-05-07T04:29:16;101335.20;;;14.80
68939;BMP180;59064;45.294;11.816;2023-05-07T04:31:43;101336.60;;;14.90
68939;BMP180;59064;45.294;11.816;2023-05-07T04:34:11;101336.80;;;15.00
68939;BMP180;59064;45.294;11.816;2023-05-07T04:36:40;101338.20;;;15.00
68939;BMP180;59064;45.294;11.816;2023-05-07T04:39:05;101333.60;;;15.10
68939;BMP180;59064;45.294;11.816;2023-05-07T04:41:32;101338.00;;;15.20
68939;BMP180;59064;45.294;11.816;2023-05-07T04:43:57;101341.40;;;15.30
68939;BMP180;59064;45.294;11.816;2023-05-07T04:46:24;101349.80;;;15.30
68939;BMP180;59064;45.294;11.816;2023-05-07T04:48:50;101348.80;;;15.40
68939;BMP180;59064;45.294;11.816;2023-05-07T04:51:15;101350.20;;;15.50
68939;BMP180;59064;45.294;11.816;2023-05-07T04:53:41;101351.40;;;15.60
68939;BMP180;59064;45.294;11.816;2023-05-07T04:56:08;101347.40;;;15.70
68939;BMP180;59064;45.294;11.816;2023-05-07T04:58:34;101353.40;;;15.80
68939;BMP180;59064;45.294;11.816;2023-05-07T05:00:59;101348.60;;;15.90
68939;BMP180;59064;45.294;11.816;2023-05-07T05:03:25;101353.40;;;16.00
68939;BMP180;59064;45.294;11.816;2023-05-07T05:05:51;101355.80;;;16.10
68939;BMP180;59064;45.294;11.816;2023-05-07T05:08:17;101356.80;;;16.28
68939;BMP180;59064;45.294;11.816;2023-05-07T05:10:42;101361.80;;;16.40
68939;BMP180;59064;45.294;11.816;2023-05-07T05:13:09;101362.40;;;16.56
68939;BMP180;59064;45.294;11.816;2023-05-07T05:15:35;101362.00;;;16.78
68939;BMP180;59064;45.294;11.816;2023-05-07T05:18:01;101360.80;;;17.00
68939;BMP180;59064;45.294;11.816;2023-05-07T05:20:26;101367.20;;;17.20
68939;BMP180;59064;45.294;11.816;2023-05-07T05:22:52;101371.80;;;17.46
68939;BMP180;59064;45.294;11.816;2023-05-07T05:25:17;101374.40;;;17.60
68939;BMP180;59064;45.294;11.816;2023-05-07T05:27:43;101374.80;;;17.70
68939;BMP180;59064;45.294;11.816;2023-05-07T05:30:09;101375.20;;;17.80
68939;BMP180;59064;45.294;11.816;2023-05-07T05:32:35;101371.80;;;17.90
68939;BMP180;59064;45.294;11.816;2023-05-07T05:35:01;101370.00;;;18.00
68939;BMP180;59064;45.294;11.816;2023-05-07T05:37:26;101370.80;;;18.12
68939;BMP180;59064;45.294;11.816;2023-05-07T05:39:52;101371.60;;;18.30
68939;BMP180;59064;45.294;11.816;2023-05-07T05:42:19;101372.60;;;18.40
68939;BMP180;59064;45.294;11.816;2023-05-07T05:44:45;101372.20;;;18.50
68939;BMP180;59064;45.294;11.816;2023-05-07T05:47:10;101373.20;;;18.50
68939;BMP180;59064;45.294;11.816;2023-05-07T05:49:36;101376.60;;;18.50
68939;BMP180;59064;45.294;11.816;2023-05-07T05:52:02;101376.60;;;18.50
68939;BMP180;59064;45.294;11.816;2023-05-07T05:54:28;101375.60;;;18.56
68939;BMP180;59064;45.294;11.816;2023-05-07T05:56:54;101377.80;;;18.60
68939;BMP180;59064;45.294;11.816;2023-05-07T05:59:20;101375.00;;;18.70
68939;BMP180;59064;45.294;11.816;2023-05-07T06:01:46;101379.20;;;18.80
68939;BMP180;59064;45.294;11.816;2023-05-07T06:04:12;101374.20;;;18.90
68939;BMP180;59064;45.294;11.816;2023-05-07T06:06:37;101379.00;;;19.00
68939;BMP180;59064;45.294;11.816;2023-05-07T06:09:03;101379.00;;;19.10
68939;BMP180;59064;45.294;11.816;2023-05-07T06:11:29;101377.60;;;19.20
68939;BMP180;59064;45.294;11.816;2023-05-07T06:13:55;101383.00;;;19.20
68939;BMP180;59064;45.294;11.816;2023-05-07T06:16:21;101385.60;;;19.30
68939;BMP180;59064;45.294;11.816;2023-05-07T06:18:46;101386.80;;;19.50
68939;BMP180;59064;45.294;11.816;2023-05-07T06:21:13;101385.00;;;19.60
68939;BMP180;59064;45.294;11.816;2023-05-07T06:23:40;101384.00;;;19.70
68939;BMP180;59064;45.294;11.816;2023-05-07T06:26:06;101389.80;;;19.80
68939;BMP180;59064;45.294;11.816;2023-05-07T06:28:32;101388.20;;;19.90
68939;BMP180;59064;45.294;11.816;2023-05-07T06:31:20;101390.40;;;20.10
68939;BMP180;59064;45.294;11.816;2023-05-07T06:33:46;101392.60;;;20.20
68939;BMP180;59064;45.294;11.816;2023-05-07T06:36:12;101396.40;;;20.30
68939;BMP180;59064;45.294;11.816;2023-05-07T06:38:38;101392.80;;;20.40
68939;BMP180;59064;45.294;11.816;2023-05-07T06:41:06;101397.80;;;20.58
68939;BMP180;59064;45.294;11.816;2023-05-07T06:43:33;101392.60;;;20.80
68939;BMP180;59064;45.294;11.816;2023-05-07T06:45:59;101392.20;;;21.00
68939;BMP180;59064;45.294;11.816;2023-05-07T06:48:25;101400.60;;;20.90
68939;BMP180;59064;45.294;11.816;2023-05-07T06:50:51;101406.20;;;21.00
68939;BMP180;59064;45.294;11.816;2023-05-07T06:53:16;101409.60;;;21.20
68939;BMP180;59064;45.294;11.816;2023-05-07T06:55:42;101408.20;;;21.44
68939;BMP180;59064;45.294;11.816;2023-05-07T06:58:08;101409.00;;;21.60
68939;BMP180;59064;45.294;11.816;2023-05-07T07:00:33;101412.00;;;21.64
68939;BMP180;59064;45.294;11.816;2023-05-07T07:03:00;101415.00;;;21.70
68939;BMP180;59064;45.294;11.816;2023-05-07T07:05:25;101417.80;;;21.74
68939;BMP180;59064;45.294;11.816;2023-05-07T07:07:51;101416.00;;;21.96
68939;BMP180;59064;45.294;11.816;2023-05-07T07:10:20;101418.60;;;22.30
68939;BMP180;59064;45.294;11.816;2023-05-07T07:12:45;101415.00;;;22.40
68939;BMP180;59064;45.294;11.816;2023-05-07T07:15:11;101415.80;;;22.30
68939;BMP180;59064;45.294;11.816;2023-05-07T07:17:37;101416.40;;;22.30
68939;BMP180;59064;45.294;11.816;2023-05-07T07:20:03;101414.40;;;22.40
68939;BMP180;59064;45.294;11.816;2023-05-07T07:22:28;101409.20;;;22.60
68939;BMP180;59064;45.294;11.816;2023-05-07T07:24:54;101406.20;;;22.70
68939;BMP180;59064;45.294;11.816;2023-05-07T07:27:20;101408.60;;;22.60
68939;BMP180;59064;45.294;11.816;2023-05-07T07:29:45;101407.20;;;22.62
68939;BMP180;59064;45.294;11.816;2023-05-07T07:32:11;101409.40;;;22.74
68939;BMP180;59064;45.294;11.816;2023-05-07T07:34:36;101405.60;;;22.80
68939;BMP180;59064;45.294;11.816;2023-05-07T07:37:02;101405.00;;;23.00
68939;BMP180;59064;45.294;11.816;2023-05-07T07:39:31;101409.60;;;23.20
68939;BMP180;59064;45.294;11.816;2023-05-07T07:41:57;101409.40;;;23.40
68939;BMP180;59064;45.294;11.816;2023-05-07T07:44:22;101408.80;;;23.60
68939;BMP180;59064;45.294;11.816;2023-05-07T07:46:48;101407.40;;;23.50
68939;BMP180;59064;45.294;11.816;2023-05-07T07:49:14;101402.20;;;23.30
68939;BMP180;59064;45.294;11.816;2023-05-07T07:51:40;101405.40;;;23.20
68939;BMP180;59064;45.294;11.816;2023-05-07T07:54:06;101407.00;;;23.30
68939;BMP180;59064;45.294;11.816;2023-05-07T07:56:34;101411.40;;;23.30
68939;BMP180;59064;45.294;11.816;2023-05-07T07:59:00;101407.40;;;23.40
68939;BMP180;59064;45.294;11.816;2023-05-07T08:01:26;101405.60;;;23.64
68939;BMP180;59064;45.294;11.816;2023-05-07T08:03:51;101407.00;;;24.12
68939;BMP180;59064;45.294;11.816;2023-05-07T08:06:17;101408.40;;;24.30
68939;BMP180;59064;45.294;11.816;2023-05-07T08:08:43;101411.00;;;24.34
68939;BMP180;59064;45.294;11.816;2023-05-07T08:11:09;101411.80;;;24.70
68939;BMP180;59064;45.294;11.816;2023-05-07T08:13:35;101408.40;;;24.84
68939;BMP180;59064;45.294;11.816;2023-05-07T08:16:01;101409.40;;;25.30
68939;BMP180;59064;45.294;11.816;2023-05-07T08:18:28;101403.40;;;25.50
68939;BMP180;59064;45.294;11.816;2023-05-07T08:20:54;101411.60;;;25.86
68939;BMP180;59064;45.294;11.816;2023-05-07T08:23:20;101411.20;;;26.24
68939;BMP180;59064;45.294;11.816;2023-05-07T08:25:46;101411.60;;;26.36
68939;BMP180;59064;45.294;11.816;2023-05-07T08:28:11;101413.40;;;26.58
68939;BMP180;59064;45.294;11.816;2023-05-07T08:30:37;101410.40;;;26.88
68939;BMP180;59064;45.294;11.816;2023-05-07T08:33:02;101416.60;;;27.18
68939;BMP180;59064;45.294;11.816;2023-05-07T08:35:28;101418.00;;;27.10
68939;BMP180;59064;45.294;11.816;2023-05-07T08:37:54;101414.60;;;27.10
68939;BMP180;59064;45.294;11.816;2023-05-07T08:40:23;101415.20;;;27.20
68939;BMP180;59064;45.294;11.816;2023-05-07T08:42:52;101416.20;;;27.36
68939;BMP180;59064;45.294;11.816;2023-05-07T08:45:19;101415.40;;;27.52
68939;BMP180;59064;45.294;11.816;2023-05-07T08:47:48;101416.40;;;27.70
68939;BMP180;59064;45.294;11.816;2023-05-07T08:50:16;101417.60;;;27.70
68939;BMP180;59064;45.294;11.816;2023-05-07T08:52:41;101417.40;;;27.80
68939;BMP180;59064;45.294;11.816;2023-05-07T08:55:08;101421.60;;;27.80
68939;BMP180;59064;45.294;11.816;2023-05-07T08:57:34;101422.00;;;27.92
68939;BMP180;59064;45.294;11.816;2023-05-07T09:00:01;101421.40;;;28.10
68939;BMP180;59064;45.294;11.816;2023-05-07T09:02:26;101419.60;;;27.80
68939;BMP180;59064;45.294;11.816;2023-05-07T09:04:52;101421.00;;;27.98
68939;BMP180;59064;45.294;11.816;2023-05-07T09:07:19;101419.00;;;28.00
68939;BMP180;59064;45.294;11.816;2023-05-07T09:09:45;101424.00;;;27.84
68939;BMP180;59064;45.294;11.816;2023-05-07T09:12:11;101424.20;;;27.48
68939;BMP180;59064;45.294;11.816;2023-05-07T09:14:37;101425.20;;;26.92
68939;BMP180;59064;45.294;11.816;2023-05-07T09:17:03;101425.80;;;26.58
68939;BMP180;59064;45.294;11.816;2023-05-07T09:19:28;101424.20;;;26.40
68939;BMP180;59064;45.294;11.816;2023-05-07T09:22:01;101416.40;;;26.50
68939;BMP180;59064;45.294;11.816;2023-05-07T09:24:28;101418.20;;;26.70
68939;BMP180;59064;45.294;11.816;2023-05-07T09:26:57;101418.00;;;26.90
68939;BMP180;59064;45.294;11.816;2023-05-07T09:29:24;101413.20;;;27.10
68939;BMP180;59064;45.294;11.816;2023-05-07T09:31:50;101414.00;;;27.32
68939;BMP180;59064;45.294;11.816;2023-05-07T09:34:16;101418.00;;;27.64
68939;BMP180;59064;45.294;11.816;2023-05-07T09:36:41;101412.20;;;28.02
68939;BMP180;59064;45.294;11.816;2023-05-07T09:39:07;101421.00;;;28.18
68939;BMP180;59064;45.294;11.816;2023-05-07T09:41:43;101419.00;;;28.20
68939;BMP180;59064;45.294;11.816;2023-05-07T09:44:09;101416.80;;;28.30
68939;BMP180;59064;45.294;11.816;2023-05-07T09:46:36;101418.80;;;28.50
68939;BMP180;59064;45.294;11.816;2023-05-07T09:49:06;101418.20;;;28.80
68939;BMP180;59064;45.294;11.816;2023-05-07T09:51:45;101424.40;;;28.70
68939;BMP180;59064;45.294;11.816;2023-05-07T09:54:11;101421.80;;;28.80
68939;BMP180;59064;45.294;11.816;2023-05-07T09:56:37;101423.00;;;28.80
68939;BMP180;59064;45.294;11.816;2023-05-07T09:59:05;101424.40;;;28.88
68939;BMP180;59064;45.294;11.816;2023-05-07T10:01:32;101421.80;;;28.60
68939;BMP180;59064;45.294;11.816;2023-05-07T10:04:01;101421.20;;;28.50
68939;BMP180;59064;45.294;11.816;2023-05-07T10:06:29;101418.00;;;28.50
68939;BMP180;59064;45.294;11.816;2023-05-07T10:08:55;101418.80;;;28.60
68939;BMP180;59064;45.294;11.816;2023-05-07T10:11:22;101420.60;;;28.82
68939;BMP180;59064;45.294;11.816;2023-05-07T10:13:48;101415.00;;;28.90
68939;BMP180;59064;45.294;11.816;2023-05-07T10:16:14;101413.40;;;28.68
68939;BMP180;59064;45.294;11.816;2023-05-07T10:18:40;101411.80;;;28.82
68939;BMP180;59064;45.294;11.816;2023-05-07T10:21:20;101404.80;;;29.32
68939;BMP180;59064;45.294;11.816;2023-05-07T10:23:49;101404.20;;;29.96
68939;BMP180;59064;45.294;11.816;2023-05-07T10:26:17;101402.40;;;30.60
68939;BMP180;59064;45.294;11.816;2023-05-07T10:28:47;101397.00;;;30.90
68939;BMP180;59064;45.294;11.816;2023-05-07T10:31:35;101402.20;;;31.10
68939;BMP180;59064;45.294;11.816;2023-05-07T10:34:11;101402.60;;;30.90
68939;BMP180;59064;45.294;11.816;2023-05-07T10:36:38;101407.60;;;30.80
68939;BMP180;59064;45.294;11.816;2023-05-07T10:39:06;101407.60;;;30.96
68939;BMP180;59064;45.294;11.816;2023-05-07T10:41:31;101409.80;;;31.16
68939;BMP180;59064;45.294;11.816;2023-05-07T10:43:57;101409.80;;;31.10
68939;BMP180;59064;45.294;11.816;2023-05-07T10:46:26;101410.80;;;31.20
68939;BMP180;59064;45.294;11.816;2023-05-07T10:51:32;101410.00;;;31.60
68939;BMP180;59064;45.294;11.816;2023-05-07T10:56:38;101413.20;;;31.10
68939;BMP180;59064;45.294;11.816;2023-05-07T11:01:59;101414.00;;;30.62
68939;BMP180;59064;45.294;11.816;2023-05-07T11:04:28;101411.40;;;30.50
68939;BMP180;59064;45.294;11.816;2023-05-07T11:15:06;101406.40;;;29.30
68939;BMP180;59064;45.294;11.816;2023-05-07T11:17:32;101404.00;;;29.34
68939;BMP180;59064;45.294;11.816;2023-05-07T11:20:00;101406.00;;;29.64
68939;BMP180;59064;45.294;11.816;2023-05-07T11:25:03;101399.40;;;29.72
68939;BMP180;59064;45.294;11.816;2023-05-07T11:27:29;101394.80;;;29.60
68939;BMP180;59064;45.294;11.816;2023-05-07T11:29:55;101396.20;;;29.58
68939;BMP180;59064;45.294;11.816;2023-05-07T11:32:29;101395.60;;;29.50
68939;BMP180;59064;45.294;11.816;2023-05-07T11:34:55;101388.40;;;29.42
68939;BMP180;59064;45.294;11.816;2023-05-07T11:37:23;101390.40;;;29.46
68939;BMP180;59064;45.294;11.816;2023-05-07T11:39:49;101389.60;;;29.84
68939;BMP180;59064;45.294;11.816;2023-05-07T11:42:36;101390.20;;;30.56
68939;BMP180;59064;45.294;11.816;2023-05-07T11:45:03;101392.80;;;31.14
68939;BMP180;59064;45.294;11.816;2023-05-07T11:47:32;101396.00;;;31.44
68939;BMP180;59064;45.294;11.816;2023-05-07T11:50:04;101395.40;;;31.88
68939;BMP180;59064;45.294;11.816;2023-05-07T11:52:30;101396.00;;;31.94
68939;BMP180;59064;45.294;11.816;2023-05-07T11:54:58;101393.00;;;31.70
68939;BMP180;59064;45.294;11.816;2023-05-07T11:57:29;101396.80;;;31.60
68939;BMP180;59064;45.294;11.816;2023-05-07T11:59:58;101394.40;;;31.60
68939;BMP180;59064;45.294;11.816;2023-05-07T12:02:24;101390.60;;;31.32
68939;BMP180;59064;45.294;11.816;2023-05-07T12:04:51;101395.20;;;31.08
68939;BMP180;59064;45.294;11.816;2023-05-07T12:07:17;101387.40;;;30.80
68939;BMP180;59064;45.294;11.816;2023-05-07T12:09:46;101390.20;;;31.14
68939;BMP180;59064;45.294;11.816;2023-05-07T12:12:13;101387.60;;;31.40
68939;BMP180;59064;45.294;11.816;2023-05-07T12:14:42;101381.60;;;31.60
68939;BMP180;59064;45.294;11.816;2023-05-07T12:17:08;101382.80;;;30.82
68939;BMP180;59064;45.294;11.816;2023-05-07T12:19:35;101384.00;;;30.40
68939;BMP180;59064;45.294;11.816;2023-05-07T12:22:05;101382.20;;;30.70
68939;BMP180;59064;45.294;11.816;2023-05-07T12:24:48;101382.20;;;30.90
68939;BMP180;59064;45.294;11.816;2023-05-07T12:27:15;101383.40;;;31.44
68939;BMP180;59064;45.294;11.816;2023-05-07T12:29:47;101378.80;;;31.70
68939;BMP180;59064;45.294;11.816;2023-05-07T12:32:15;101385.00;;;31.76
68939;BMP180;59064;45.294;11.816;2023-05-07T12:34:41;101376.40;;;31.80
68939;BMP180;59064;45.294;11.816;2023-05-07T12:37:06;101380.60;;;31.56
68939;BMP180;59064;45.294;11.816;2023-05-07T12:39:32;101378.60;;;31.28
68939;BMP180;59064;45.294;11.816;2023-05-07T12:41:59;101374.80;;;31.20
68939;BMP180;59064;45.294;11.816;2023-05-07T12:44:29;101374.40;;;31.20
68939;BMP180;59064;45.294;11.816;2023-05-07T12:46:55;101380.60;;;31.04
68939;BMP180;59064;45.294;11.816;2023-05-07T12:49:21;101378.20;;;31.24
68939;BMP180;59064;45.294;11.816;2023-05-07T12:51:47;101373.80;;;31.62
68939;BMP180;59064;45.294;11.816;2023-05-07T12:54:27;101374.80;;;31.80
68939;BMP180;59064;45.294;11.816;2023-05-07T12:57:06;101368.00;;;32.48
68939;BMP180;59064;45.294;11.816;2023-05-07T12:59:38;101370.60;;;32.70
68939;BMP180;59064;45.294;11.816;2023-05-07T13:02:05;101363.60;;;32.60
68939;BMP180;59064;45.294;11.816;2023-05-07T13:04:32;101364.20;;;32.68
68939;BMP180;59064;45.294;11.816;2023-05-07T13:06:58;101367.80;;;33.10
68939;BMP180;59064;45.294;11.816;2023-05-07T13:09:24;101362.20;;;33.10
68939;BMP180;59064;45.294;11.816;2023-05-07T13:11:50;101362.40;;;33.20
68939;BMP180;59064;45.294;11.816;2023-05-07T13:14:15;101359.00;;;33.18
68939;BMP180;59064;45.294;11.816;2023-05-07T13:16:42;101360.00;;;33.00
68939;BMP180;59064;45.294;11.816;2023-05-07T13:19:08;101360.60;;;32.56
68939;BMP180;59064;45.294;11.816;2023-05-07T13:21:33;101354.20;;;32.40
68939;BMP180;59064;45.294;11.816;2023-05-07T13:23:59;101346.60;;;32.82
68939;BMP180;59064;45.294;11.816;2023-05-07T13:26:25;101342.00;;;33.16
68939;BMP180;59064;45.294;11.816;2023-05-07T13:28:54;101340.00;;;33.50
68939;BMP180;59064;45.294;11.816;2023-05-07T13:31:20;101340.00;;;33.70
68939;BMP180;59064;45.294;11.816;2023-05-07T13:33:46;101335.60;;;34.14
68939;BMP180;59064;45.294;11.816;2023-05-07T13:36:12;101333.60;;;34.78
68939;BMP180;59064;45.294;11.816;2023-05-07T13:38:38;101329.80;;;34.80
68939;BMP180;59064;45.294;11.816;2023-05-07T13:41:04;101333.20;;;35.32
68939;BMP180;59064;45.294;11.816;2023-05-07T13:43:30;101331.20;;;35.64
68939;BMP180;59064;45.294;11.816;2023-05-07T13:45:57;101330.80;;;35.40
68939;BMP180;59064;45.294;11.816;2023-05-07T13:48:22;101328.60;;;35.08
68939;BMP180;59064;45.294;11.816;2023-05-07T13:50:48;101327.20;;;34.36
68939;BMP180;59064;45.294;11.816;2023-05-07T13:53:13;101327.60;;;32.98
68939;BMP180;59064;45.294;11.816;2023-05-07T13:55:43;101323.20;;;32.62
68939;BMP180;59064;45.294;11.816;2023-05-07T13:58:09;101324.60;;;33.26
68939;BMP180;59064;45.294;11.816;2023-05-07T14:00:34;101323.00;;;33.82